62MI weather

Mercy Health Heliport
Shelby, Michigan, United States

Public forecast

Using degrees Fahrenheit for public forecast. Weather courtesy of forecast.io.

METAR (pilot weather report)

Closest report is Fremont Municipal Airport, 19.0 nm (35.2 km) ESE. Retrieved 2019/07/19 15:36 UTC (4 minutes ago):

KFFX 191536Z AUTO 21010KT 10SM CLR 30/19 A2982 RMK AO2 T03010189

TAF (pilot weather forecast)

Closest forecast is Muskegon County Airport, 26.8 nm (49.7 km) SSE. Retrieved 2019/07/19 12:42 UTC (3 hours ago):

TAF KMKG 191139Z 1912/2012 21014G22KT P6SM VCSH SCT025 BKN050 FM191500 22014G22KT P6SM SCT035 BKN250 FM192100 21010KT P6SM SKC